sensor_id;sensor_type;location;lat;lon;timestamp;temperature;humidity
75769;DHT22;64379;48.888;8.330;2023-01-04T00:02:30;5.60;80.00
75769;DHT22;64379;48.888;8.330;2023-01-04T00:04:56;5.50;80.20
75769;DHT22;64379;48.888;8.330;2023-01-04T00:07:22;4.80;78.30
75769;DHT22;64379;48.888;8.330;2023-01-04T00:09:47;4.00;80.10
75769;DHT22;64379;48.888;8.330;2023-01-04T00:12:13;3.80;81.80
75769;DHT22;64379;48.888;8.330;2023-01-04T00:14:38;3.70;82.50
75769;DHT22;64379;48.888;8.330;2023-01-04T00:17:04;3.60;83.20
75769;DHT22;64379;48.888;8.330;2023-01-04T00:19:29;3.60;83.60
75769;DHT22;64379;48.888;8.330;2023-01-04T00:21:55;3.50;84.30
75769;DHT22;64379;48.888;8.330;2023-01-04T00:24:21;3.50;84.80
75769;DHT22;64379;48.888;8.330;2023-01-04T00:26:46;3.50;85.00
75769;DHT22;64379;48.888;8.330;2023-01-04T00:29:12;3.30;85.30
75769;DHT22;64379;48.888;8.330;2023-01-04T00:31:38;3.30;85.90
75769;DHT22;64379;48.888;8.330;2023-01-04T00:34:05;3.50;86.70
75769;DHT22;64379;48.888;8.330;2023-01-04T00:36:31;3.60;86.60
75769;DHT22;64379;48.888;8.330;2023-01-04T00:38:59;3.70;86.40
75769;DHT22;64379;48.888;8.330;2023-01-04T00:44:08;3.70;85.70
75769;DHT22;64379;48.888;8.330;2023-01-04T00:46:34;3.80;85.50
75769;DHT22;64379;48.888;8.330;2023-01-04T00:49:00;3.90;85.50
75769;DHT22;64379;48.888;8.330;2023-01-04T00:51:27;3.90;85.30
75769;DHT22;64379;48.888;8.330;2023-01-04T00:53:53;3.90;85.10
75769;DHT22;64379;48.888;8.330;2023-01-04T00:56:18;3.70;84.60
75769;DHT22;64379;48.888;8.330;2023-01-04T00:58:44;3.50;84.20
75769;DHT22;64379;48.888;8.330;2023-01-04T01:01:10;3.30;84.30
75769;DHT22;64379;48.888;8.330;2023-01-04T01:03:36;3.00;85.00
75769;DHT22;64379;48.888;8.330;2023-01-04T01:06:03;3.00;85.60
75769;DHT22;64379;48.888;8.330;2023-01-04T01:08:29;3.30;87.00
75769;DHT22;64379;48.888;8.330;2023-01-04T01:11:01;3.90;88.00
75769;DHT22;64379;48.888;8.330;2023-01-04T01:13:26;4.40;87.50
75769;DHT22;64379;48.888;8.330;2023-01-04T01:15:52;4.70;85.60
75769;DHT22;64379;48.888;8.330;2023-01-04T01:18:17;4.70;84.80
75769;DHT22;64379;48.888;8.330;2023-01-04T01:20:44;4.80;84.30
75769;DHT22;64379;48.888;8.330;2023-01-04T01:23:13;4.90;84.20
75769;DHT22;64379;48.888;8.330;2023-01-04T01:25:40;4.80;84.20
75769;DHT22;64379;48.888;8.330;2023-01-04T01:28:06;4.90;84.10
75769;DHT22;64379;48.888;8.330;2023-01-04T01:30:33;4.90;84.20
75769;DHT22;64379;48.888;8.330;2023-01-04T01:32:59;4.70;84.20
75769;DHT22;64379;48.888;8.330;2023-01-04T01:35:24;4.70;84.30
75769;DHT22;64379;48.888;8.330;2023-01-04T01:37:50;4.70;84.60
75769;DHT22;64379;48.888;8.330;2023-01-04T01:40:16;4.60;84.60
75769;DHT22;64379;48.888;8.330;2023-01-04T01:42:41;4.50;84.70
75769;DHT22;64379;48.888;8.330;2023-01-04T01:45:29;4.50;85.00
75769;DHT22;64379;48.888;8.330;2023-01-04T01:48:32;4.40;85.10
75769;DHT22;64379;48.888;8.330;2023-01-04T01:50:57;4.40;85.40
75769;DHT22;64379;48.888;8.330;2023-01-04T01:53:26;4.40;85.50
75769;DHT22;64379;48.888;8.330;2023-01-04T01:55:55;4.40;85.50
75769;DHT22;64379;48.888;8.330;2023-01-04T01:58:36;4.50;85.50
75769;DHT22;64379;48.888;8.330;2023-01-04T02:01:04;4.50;85.50
75769;DHT22;64379;48.888;8.330;2023-01-04T02:03:34;4.60;85.10
75769;DHT22;64379;48.888;8.330;2023-01-04T02:06:02;4.70;84.80
75769;DHT22;64379;48.888;8.330;2023-01-04T02:08:29;4.70;84.50
75769;DHT22;64379;48.888;8.330;2023-01-04T02:10:55;4.70;84.40
75769;DHT22;64379;48.888;8.330;2023-01-04T02:13:25;4.70;84.30
75769;DHT22;64379;48.888;8.330;2023-01-04T02:16:20;4.70;84.40
75769;DHT22;64379;48.888;8.330;2023-01-04T02:19:35;4.60;84.50
75769;DHT22;64379;48.888;8.330;2023-01-04T02:27:10;4.40;84.90
75769;DHT22;64379;48.888;8.330;2023-01-04T02:32:42;4.30;85.40
75769;DHT22;64379;48.888;8.330;2023-01-04T02:35:18;4.30;85.80
75769;DHT22;64379;48.888;8.330;2023-01-04T02:38:08;4.30;86.00
75769;DHT22;64379;48.888;8.330;2023-01-04T02:41:02;4.20;86.30
75769;DHT22;64379;48.888;8.330;2023-01-04T02:43:49;4.20;86.60
75769;DHT22;64379;48.888;8.330;2023-01-04T02:46:40;4.10;87.20
75769;DHT22;64379;48.888;8.330;2023-01-04T02:49:07;4.10;87.50
75769;DHT22;64379;48.888;8.330;2023-01-04T02:51:51;4.10;87.60
75769;DHT22;64379;48.888;8.330;2023-01-04T02:54:24;4.00;88.00
75769;DHT22;64379;48.888;8.330;2023-01-04T02:57:28;3.90;88.50
75769;DHT22;64379;48.888;8.330;2023-01-04T03:08:40;3.90;88.90
75769;DHT22;64379;48.888;8.330;2023-01-04T03:11:10;3.90;89.00
75769;DHT22;64379;48.888;8.330;2023-01-04T03:14:05;3.90;89.10
75769;DHT22;64379;48.888;8.330;2023-01-04T03:16:33;3.90;89.20
75769;DHT22;64379;48.888;8.330;2023-01-04T03:19:03;3.90;89.40
75769;DHT22;64379;48.888;8.330;2023-01-04T03:21:34;3.90;89.50
75769;DHT22;64379;48.888;8.330;2023-01-04T03:24:02;3.90;89.50
75769;DHT22;64379;48.888;8.330;2023-01-04T03:26:52;3.90;89.40
75769;DHT22;64379;48.888;8.330;2023-01-04T03:29:42;4.00;89.30
75769;DHT22;64379;48.888;8.330;2023-01-04T03:32:46;4.00;89.10
75769;DHT22;64379;48.888;8.330;2023-01-04T03:35:59;4.00;88.90
75769;DHT22;64379;48.888;8.330;2023-01-04T03:38:38;4.10;88.60
75769;DHT22;64379;48.888;8.330;2023-01-04T03:41:34;4.10;88.40
75769;DHT22;64379;48.888;8.330;2023-01-04T03:44:33;4.10;88.30
75769;DHT22;64379;48.888;8.330;2023-01-04T03:47:28;4.00;88.10
75769;DHT22;64379;48.888;8.330;2023-01-04T03:50:23;4.00;88.00
75769;DHT22;64379;48.888;8.330;2023-01-04T03:52:50;4.10;87.80
75769;DHT22;64379;48.888;8.330;2023-01-04T03:55:17;4.20;87.50
75769;DHT22;64379;48.888;8.330;2023-01-04T03:57:43;4.30;87.00
75769;DHT22;64379;48.888;8.330;2023-01-04T04:00:13;4.30;86.50
75769;DHT22;64379;48.888;8.330;2023-01-04T04:02:40;4.30;86.20
75769;DHT22;64379;48.888;8.330;2023-01-04T04:05:06;4.30;86.10
75769;DHT22;64379;48.888;8.330;2023-01-04T04:07:51;4.30;85.90
75769;DHT22;64379;48.888;8.330;2023-01-04T04:10:35;4.30;85.80
75769;DHT22;64379;48.888;8.330;2023-01-04T04:13:01;4.30;85.80
75769;DHT22;64379;48.888;8.330;2023-01-04T04:15:27;4.30;85.70
75769;DHT22;64379;48.888;8.330;2023-01-04T04:17:52;4.30;85.70
75769;DHT22;64379;48.888;8.330;2023-01-04T04:20:18;4.30;85.70
75769;DHT22;64379;48.888;8.330;2023-01-04T04:22:44;4.30;85.70
75769;DHT22;64379;48.888;8.330;2023-01-04T04:25:09;4.30;85.50
75769;DHT22;64379;48.888;8.330;2023-01-04T04:27:35;4.30;85.50
75769;DHT22;64379;48.888;8.330;2023-01-04T04:30:00;4.30;85.40
75769;DHT22;64379;48.888;8.330;2023-01-04T04:32:27;4.30;85.30
75769;DHT22;64379;48.888;8.330;2023-01-04T04:34:52;4.30;85.20
75769;DHT22;64379;48.888;8.330;2023-01-04T04:37:18;4.30;85.00
75769;DHT22;64379;48.888;8.330;2023-01-04T04:39:44;4.30;84.90
75769;DHT22;64379;48.888;8.330;2023-01-04T04:42:09;4.30;84.80
75769;DHT22;64379;48.888;8.330;2023-01-04T04:44:35;4.30;84.70
75769;DHT22;64379;48.888;8.330;2023-01-04T04:47:01;4.30;84.50
75769;DHT22;64379;48.888;8.330;2023-01-04T04:49:26;4.40;84.30
75769;DHT22;64379;48.888;8.330;2023-01-04T04:51:52;4.40;83.80
75769;DHT22;64379;48.888;8.330;2023-01-04T04:54:19;4.50;83.30
75769;DHT22;64379;48.888;8.330;2023-01-04T04:56:46;4.60;82.70
75769;DHT22;64379;48.888;8.330;2023-01-04T04:59:12;4.70;82.20
75769;DHT22;64379;48.888;8.330;2023-01-04T05:01:38;4.90;81.40
75769;DHT22;64379;48.888;8.330;2023-01-04T05:04:03;5.00;80.50
75769;DHT22;64379;48.888;8.330;2023-01-04T05:06:29;5.10;79.70
75769;DHT22;64379;48.888;8.330;2023-01-04T05:08:55;5.30;78.90
75769;DHT22;64379;48.888;8.330;2023-01-04T05:11:20;5.30;78.30
75769;DHT22;64379;48.888;8.330;2023-01-04T05:14:07;5.50;77.20
75769;DHT22;64379;48.888;8.330;2023-01-04T05:16:33;5.70;76.10
75769;DHT22;64379;48.888;8.330;2023-01-04T05:18:58;5.90;75.20
75769;DHT22;64379;48.888;8.330;2023-01-04T05:21:24;6.10;74.20
75769;DHT22;64379;48.888;8.330;2023-01-04T05:23:49;6.30;73.40
75769;DHT22;64379;48.888;8.330;2023-01-04T05:26:15;6.40;72.20
75769;DHT22;64379;48.888;8.330;2023-01-04T05:28:40;6.70;71.30
75769;DHT22;64379;48.888;8.330;2023-01-04T05:31:06;6.90;70.60
75769;DHT22;64379;48.888;8.330;2023-01-04T05:33:32;7.00;69.70
75769;DHT22;64379;48.888;8.330;2023-01-04T05:36:00;7.20;69.20
75769;DHT22;64379;48.888;8.330;2023-01-04T05:38:26;7.30;68.70
75769;DHT22;64379;48.888;8.330;2023-01-04T05:40:52;7.30;68.80
75769;DHT22;64379;48.888;8.330;2023-01-04T05:43:19;7.30;68.70
75769;DHT22;64379;48.888;8.330;2023-01-04T05:45:50;7.40;68.60
75769;DHT22;64379;48.888;8.330;2023-01-04T05:48:17;7.50;68.20
75769;DHT22;64379;48.888;8.330;2023-01-04T05:50:43;7.50;67.90
75769;DHT22;64379;48.888;8.330;2023-01-04T05:53:10;7.50;67.90
75769;DHT22;64379;48.888;8.330;2023-01-04T05:55:36;7.50;67.50
75769;DHT22;64379;48.888;8.330;2023-01-04T05:58:02;7.60;67.50
75769;DHT22;64379;48.888;8.330;2023-01-04T06:00:28;7.70;67.20
75769;DHT22;64379;48.888;8.330;2023-01-04T06:02:54;7.80;67.40
75769;DHT22;64379;48.888;8.330;2023-01-04T06:05:22;7.80;67.70
75769;DHT22;64379;48.888;8.330;2023-01-04T06:07:47;7.80;68.10
75769;DHT22;64379;48.888;8.330;2023-01-04T06:10:14;7.90;68.20
75769;DHT22;64379;48.888;8.330;2023-01-04T06:12:40;8.00;68.20
75769;DHT22;64379;48.888;8.330;2023-01-04T06:15:07;8.00;68.00
75769;DHT22;64379;48.888;8.330;2023-01-04T06:17:33;8.10;67.60
75769;DHT22;64379;48.888;8.330;2023-01-04T06:19:59;8.10;67.60
75769;DHT22;64379;48.888;8.330;2023-01-04T06:22:26;8.10;67.50
75769;DHT22;64379;48.888;8.330;2023-01-04T06:24:51;8.20;67.20
75769;DHT22;64379;48.888;8.330;2023-01-04T06:27:17;8.30;66.80
75769;DHT22;64379;48.888;8.330;2023-01-04T06:29:43;8.30;66.90
75769;DHT22;64379;48.888;8.330;2023-01-04T06:32:08;8.30;66.90
75769;DHT22;64379;48.888;8.330;2023-01-04T06:34:34;8.30;67.10
75769;DHT22;64379;48.888;8.330;2023-01-04T06:37:00;8.30;66.60
75769;DHT22;64379;48.888;8.330;2023-01-04T06:39:26;8.40;66.50
75769;DHT22;64379;48.888;8.330;2023-01-04T06:41:51;8.40;66.20
75769;DHT22;64379;48.888;8.330;2023-01-04T06:44:17;8.40;66.10
75769;DHT22;64379;48.888;8.330;2023-01-04T06:46:42;8.40;66.20
75769;DHT22;64379;48.888;8.330;2023-01-04T06:49:08;8.50;65.10
75769;DHT22;64379;48.888;8.330;2023-01-04T06:51:34;8.60;64.60
75769;DHT22;64379;48.888;8.330;2023-01-04T06:53:59;8.70;63.50
75769;DHT22;64379;48.888;8.330;2023-01-04T06:56:25;8.80;63.50
75769;DHT22;64379;48.888;8.330;2023-01-04T06:58:51;8.80;63.10
75769;DHT22;64379;48.888;8.330;2023-01-04T07:01:16;8.80;63.70
75769;DHT22;64379;48.888;8.330;2023-01-04T07:03:42;8.80;63.40
75769;DHT22;64379;48.888;8.330;2023-01-04T07:06:07;8.80;63.00
75769;DHT22;64379;48.888;8.330;2023-01-04T07:08:35;8.80;62.80
75769;DHT22;64379;48.888;8.330;2023-01-04T07:11:01;8.80;63.20
75769;DHT22;64379;48.888;8.330;2023-01-04T07:13:27;8.80;62.60
75769;DHT22;64379;48.888;8.330;2023-01-04T07:15:52;8.90;62.60
75769;DHT22;64379;48.888;8.330;2023-01-04T07:18:18;8.90;62.40
75769;DHT22;64379;48.888;8.330;2023-01-04T07:20:43;8.90;61.90
75769;DHT22;64379;48.888;8.330;2023-01-04T07:23:09;8.90;62.00
75769;DHT22;64379;48.888;8.330;2023-01-04T07:25:35;8.90;62.40
75769;DHT22;64379;48.888;8.330;2023-01-04T07:28:01;9.00;61.60
75769;DHT22;64379;48.888;8.330;2023-01-04T07:30:27;8.90;61.70
75769;DHT22;64379;48.888;8.330;2023-01-04T07:32:53;8.90;62.00
75769;DHT22;64379;48.888;8.330;2023-01-04T07:35:20;8.90;62.40
75769;DHT22;64379;48.888;8.330;2023-01-04T07:37:46;8.90;63.00
75769;DHT22;64379;48.888;8.330;2023-01-04T07:40:11;8.80;63.50
75769;DHT22;64379;48.888;8.330;2023-01-04T07:42:37;8.80;63.90
75769;DHT22;64379;48.888;8.330;2023-01-04T07:45:04;8.80;63.30
75769;DHT22;64379;48.888;8.330;2023-01-04T07:47:30;8.90;62.70
75769;DHT22;64379;48.888;8.330;2023-01-04T07:49:55;8.90;63.50
75769;DHT22;64379;48.888;8.330;2023-01-04T07:52:21;8.80;63.30
75769;DHT22;64379;48.888;8.330;2023-01-04T07:54:47;8.80;63.30
75769;DHT22;64379;48.888;8.330;2023-01-04T07:57:12;8.90;63.30
75769;DHT22;64379;48.888;8.330;2023-01-04T07:59:38;8.90;63.30
75769;DHT22;64379;48.888;8.330;2023-01-04T08:02:04;8.90;63.00
75769;DHT22;64379;48.888;8.330;2023-01-04T08:04:29;8.90;63.60
75769;DHT22;64379;48.888;8.330;2023-01-04T08:06:55;8.90;64.00
75769;DHT22;64379;48.888;8.330;2023-01-04T08:09:21;8.90;63.70
75769;DHT22;64379;48.888;8.330;2023-01-04T08:11:46;8.90;63.40
75769;DHT22;64379;48.888;8.330;2023-01-04T08:14:12;8.90;63.40
75769;DHT22;64379;48.888;8.330;2023-01-04T08:16:39;8.90;63.50
75769;DHT22;64379;48.888;8.330;2023-01-04T08:19:13;9.00;63.20
75769;DHT22;64379;48.888;8.330;2023-01-04T08:21:38;9.00;63.10
75769;DHT22;64379;48.888;8.330;2023-01-04T08:24:04;9.00;62.90
75769;DHT22;64379;48.888;8.330;2023-01-04T08:26:30;9.10;62.40
75769;DHT22;64379;48.888;8.330;2023-01-04T08:28:57;9.20;61.80
75769;DHT22;64379;48.888;8.330;2023-01-04T08:31:25;9.30;61.30
75769;DHT22;64379;48.888;8.330;2023-01-04T08:33:52;9.40;61.60
75769;DHT22;64379;48.888;8.330;2023-01-04T08:36:23;9.40;60.90
75769;DHT22;64379;48.888;8.330;2023-01-04T08:38:52;9.50;60.70
75769;DHT22;64379;48.888;8.330;2023-01-04T08:41:18;9.60;60.00
75769;DHT22;64379;48.888;8.330;2023-01-04T08:43:44;9.60;60.00
75769;DHT22;64379;48.888;8.330;2023-01-04T08:46:11;9.60;60.40
75769;DHT22;64379;48.888;8.330;2023-01-04T08:48:37;9.70;60.20
75769;DHT22;64379;48.888;8.330;2023-01-04T08:51:06;9.80;60.10
75769;DHT22;64379;48.888;8.330;2023-01-04T08:53:31;9.80;59.90
75769;DHT22;64379;48.888;8.330;2023-01-04T08:55:57;9.80;60.20
75769;DHT22;64379;48.888;8.330;2023-01-04T08:58:25;9.80;60.60
75769;DHT22;64379;48.888;8.330;2023-01-04T09:00:51;9.70;60.70
75769;DHT22;64379;48.888;8.330;2023-01-04T09:03:17;9.70;60.90
75769;DHT22;64379;48.888;8.330;2023-01-04T09:05:42;9.70;60.60
75769;DHT22;64379;48.888;8.330;2023-01-04T09:08:10;9.80;60.50
75769;DHT22;64379;48.888;8.330;2023-01-04T09:10:37;9.80;60.70
75769;DHT22;64379;48.888;8.330;2023-01-04T09:13:04;9.80;60.90
75769;DHT22;64379;48.888;8.330;2023-01-04T09:15:31;9.80;61.40
75769;DHT22;64379;48.888;8.330;2023-01-04T09:17:56;9.70;61.30
75769;DHT22;64379;48.888;8.330;2023-01-04T09:20:22;9.80;61.40
75769;DHT22;64379;48.888;8.330;2023-01-04T09:22:48;9.80;61.60
75769;DHT22;64379;48.888;8.330;2023-01-04T09:25:14;9.80;61.70
75769;DHT22;64379;48.888;8.330;2023-01-04T09:27:39;9.80;61.50
75769;DHT22;64379;48.888;8.330;2023-01-04T09:30:06;9.80;61.60
75769;DHT22;64379;48.888;8.330;2023-01-04T09:32:32;9.80;61.80
75769;DHT22;64379;48.888;8.330;2023-01-04T09:34:57;9.90;61.80
75769;DHT22;64379;48.888;8.330;2023-01-04T09:37:23;9.80;62.00
75769;DHT22;64379;48.888;8.330;2023-01-04T09:39:49;9.90;62.10
75769;DHT22;64379;48.888;8.330;2023-01-04T09:42:20;10.00;61.70
75769;DHT22;64379;48.888;8.330;2023-01-04T09:44:52;10.00;62.00
75769;DHT22;64379;48.888;8.330;2023-01-04T09:47:43;10.00;62.30
75769;DHT22;64379;48.888;8.330;2023-01-04T09:55:38;9.90;62.60
